Andover, Pennsylvania
Current Conditions -  °F | °C
As of 12:28 PM on Sunday 21 Dec 2014 (Local Time) from KHGR Reporting Station
Overcast Overcast  
Wind Chill: 30°   Ceiling: 6500
Heat Index: 36°   Visibility: 9mi
Dew Point: 22°   Wind: 7mph
Humidity: 57%   Direction: 340°NNW
Pressure: 30.3"   Gusts: NA
Location:  39.973°N, 77.9661°W
Report Text: KHGR 211728Z 34006KT 9SM SCT028 OVC065 02/M06 A3030 RMK AO2 T00221056
Loading
Personal Weather Stations






























Interactive Weather Map New forecast layout! Learn more

10-Day Weather Forecast

Advertisements
Track Severe Weather on mobile